createdAt,value
2024-02-19T00:00:07.529Z,10.24
2024-02-19T00:01:07.652Z,10.23
2024-02-19T00:02:07.526Z,10.21
2024-02-19T00:03:07.532Z,10.21
2024-02-19T00:04:07.583Z,10.20
2024-02-19T00:05:07.575Z,10.18
2024-02-19T00:06:07.509Z,10.21
2024-02-19T00:07:07.592Z,10.20
2024-02-19T00:08:07.603Z,10.17
2024-02-19T00:09:07.425Z,10.17
2024-02-19T00:10:07.462Z,10.15
2024-02-19T00:11:07.534Z,10.13
2024-02-19T00:12:07.420Z,10.15
2024-02-19T00:13:07.441Z,10.15
2024-02-19T00:14:07.466Z,10.13
2024-02-19T00:15:07.407Z,10.15
2024-02-19T00:16:07.482Z,10.15
2024-02-19T00:17:07.414Z,10.13
2024-02-19T00:18:07.390Z,10.13
2024-02-19T00:19:07.398Z,10.12
2024-02-19T00:20:07.336Z,10.12
2024-02-19T00:21:07.284Z,10.10
2024-02-19T00:22:07.333Z,10.09
2024-02-19T00:23:07.287Z,10.09
2024-02-19T00:24:07.402Z,10.07
2024-02-19T00:25:07.329Z,10.06
2024-02-19T00:26:07.360Z,10.07
2024-02-19T00:27:07.309Z,10.05
2024-02-19T00:28:07.274Z,10.05
2024-02-19T00:29:07.991Z,10.03
2024-02-19T00:30:07.213Z,10.03
2024-02-19T00:31:07.237Z,10.03
2024-02-19T00:32:07.206Z,10.03
2024-02-19T00:33:07.252Z,10.03
2024-02-19T00:34:07.241Z,10.02
2024-02-19T00:35:07.192Z,10.03
2024-02-19T00:36:07.178Z,10.00
2024-02-19T00:37:07.177Z,10.02
2024-02-19T00:38:07.138Z,10.02
2024-02-19T00:39:07.173Z,10.02
2024-02-19T00:40:07.159Z,10.00
2024-02-19T00:41:07.093Z,10.00
2024-02-19T00:42:07.111Z,10.03
2024-02-19T00:43:07.194Z,9.99
2024-02-19T00:44:07.072Z,9.99
2024-02-19T00:45:07.053Z,9.99
2024-02-19T00:46:07.114Z,9.99
2024-02-19T00:47:07.025Z,9.97
2024-02-19T00:48:07.085Z,9.97
2024-02-19T00:49:07.117Z,9.95
2024-02-19T00:50:07.119Z,9.95
2024-02-19T00:51:07.029Z,9.95
2024-02-19T00:52:07.076Z,9.95
2024-02-19T00:53:06.990Z,9.95
2024-02-19T00:54:06.987Z,9.95
2024-02-19T00:55:06.975Z,9.92
2024-02-19T00:56:06.925Z,9.91
2024-02-19T00:57:06.972Z,9.91
2024-02-19T00:58:06.907Z,9.90
2024-02-19T00:59:06.902Z,9.90
2024-02-19T01:00:06.972Z,9.90
2024-02-19T01:01:07.002Z,9.88
2024-02-19T01:02:07.057Z,9.87
2024-02-19T01:03:06.857Z,9.88
2024-02-19T01:04:06.960Z,9.88
2024-02-19T01:05:06.967Z,9.87
2024-02-19T01:06:06.964Z,9.85
2024-02-19T01:07:06.897Z,9.84
2024-02-19T01:08:06.815Z,9.82
2024-02-19T01:09:06.850Z,9.81
2024-02-19T01:10:07.062Z,9.82
2024-02-19T01:11:06.873Z,9.77
2024-02-19T01:12:06.797Z,9.80
2024-02-19T01:13:06.759Z,9.76
2024-02-19T01:14:06.742Z,9.76
2024-02-19T01:15:06.765Z,9.76
2024-02-19T01:16:06.810Z,9.76
2024-02-19T01:17:06.764Z,9.76
2024-02-19T01:18:06.752Z,9.74
2024-02-19T01:19:06.805Z,9.74
2024-02-19T01:20:06.712Z,9.72
2024-02-19T01:21:06.651Z,9.70
2024-02-19T01:22:06.734Z,9.70
2024-02-19T01:23:06.645Z,9.70
2024-02-19T01:24:06.642Z,9.72
2024-02-19T01:25:06.732Z,9.69
2024-02-19T01:26:06.614Z,9.69
2024-02-19T01:27:06.691Z,9.67
2024-02-19T01:28:06.631Z,9.69
2024-02-19T01:29:06.569Z,9.66
2024-02-19T01:30:06.570Z,9.66
2024-02-19T01:31:06.595Z,9.66
2024-02-19T01:32:06.576Z,9.64
2024-02-19T01:33:06.582Z,9.63
2024-02-19T01:34:06.569Z,9.62
2024-02-19T01:35:06.713Z,9.62
2024-02-19T01:36:06.468Z,9.63
2024-02-19T01:37:06.502Z,9.62
2024-02-19T01:38:06.512Z,9.59
2024-02-19T01:39:06.463Z,9.58
2024-02-19T01:40:06.507Z,9.56
2024-02-19T01:41:06.576Z,9.58
2024-02-19T01:42:06.529Z,9.56
2024-02-19T01:43:06.444Z,9.56
2024-02-19T01:44:06.402Z,9.58
2024-02-19T01:45:06.474Z,9.56
2024-02-19T01:46:06.421Z,9.56
2024-02-19T01:47:06.410Z,9.55
2024-02-19T01:48:06.419Z,9.56
2024-02-19T01:49:06.395Z,9.56
2024-02-19T01:50:06.349Z,9.56
2024-02-19T01:51:06.344Z,9.55
2024-02-19T01:52:06.336Z,9.55
2024-02-19T01:53:06.304Z,9.54
2024-02-19T01:54:06.353Z,9.51
2024-02-19T01:55:06.434Z,9.52
2024-02-19T01:56:06.310Z,9.52
2024-02-19T01:57:06.311Z,9.54
2024-02-19T01:58:06.407Z,9.54
2024-02-19T01:59:06.275Z,9.51
2024-02-19T02:00:06.960Z,9.49
2024-02-19T02:01:06.352Z,9.49
2024-02-19T02:02:06.246Z,9.48
2024-02-19T02:03:06.282Z,9.48
2024-02-19T02:04:06.271Z,9.47
2024-02-19T02:05:06.221Z,9.48
2024-02-19T02:06:06.251Z,9.48
2024-02-19T02:07:06.212Z,9.48
2024-02-19T02:08:06.198Z,9.45
2024-02-19T02:09:06.250Z,9.45
2024-02-19T02:10:06.156Z,9.45
2024-02-19T02:11:06.164Z,9.44
2024-02-19T02:12:06.137Z,9.42
2024-02-19T02:13:06.135Z,9.42
2024-02-19T02:14:06.149Z,9.42
2024-02-19T02:15:06.113Z,9.40
2024-02-19T02:16:06.166Z,9.40
2024-02-19T02:17:06.110Z,9.39
2024-02-19T02:18:06.116Z,9.37
2024-02-19T02:19:06.737Z,9.36
2024-02-19T02:20:06.107Z,9.37
2024-02-19T02:21:06.029Z,9.37
2024-02-19T02:22:06.080Z,9.39
2024-02-19T02:23:05.984Z,9.36
2024-02-19T02:24:06.009Z,9.40
2024-02-19T02:25:06.016Z,9.40
2024-02-19T02:26:05.982Z,9.39
2024-02-19T02:27:05.974Z,9.39
2024-02-19T02:28:06.009Z,9.37
2024-02-19T02:29:05.978Z,9.36
2024-02-19T02:30:05.959Z,9.34
2024-02-19T02:31:05.992Z,9.37
2024-02-19T02:32:05.946Z,9.37
2024-02-19T02:33:05.954Z,9.37
2024-02-19T02:34:05.953Z,9.36
2024-02-19T02:35:05.897Z,9.34
2024-02-19T02:36:05.852Z,9.34
2024-02-19T02:37:05.862Z,9.37
2024-02-19T02:38:05.835Z,9.37
2024-02-19T02:39:05.841Z,9.36
2024-02-19T02:40:05.868Z,9.33
2024-02-19T02:41:05.792Z,9.33
2024-02-19T02:42:05.806Z,9.36
2024-02-19T02:43:05.792Z,9.36
2024-02-19T02:44:05.755Z,9.39
2024-02-19T02:45:05.817Z,9.37
2024-02-19T02:46:05.793Z,9.34
2024-02-19T02:47:05.735Z,9.34
2024-02-19T02:48:05.786Z,9.36
2024-02-19T02:49:05.847Z,9.36
2024-02-19T02:50:05.720Z,9.34
2024-02-19T02:51:05.669Z,9.31
2024-02-19T02:52:05.757Z,9.30
2024-02-19T02:53:05.668Z,9.30
2024-02-19T02:54:05.638Z,9.33
2024-02-19T02:55:05.737Z,9.33
2024-02-19T02:56:05.664Z,9.31
2024-02-19T02:57:05.628Z,9.31
2024-02-19T02:58:05.747Z,9.31
2024-02-19T02:59:05.602Z,9.30
2024-02-19T03:00:05.612Z,9.30
2024-02-19T03:01:05.653Z,9.30
2024-02-19T03:02:05.632Z,9.33
2024-02-19T03:03:05.569Z,9.33
2024-02-19T03:04:05.587Z,9.36
2024-02-19T03:05:05.876Z,9.34
2024-02-19T03:06:05.526Z,9.36
2024-02-19T03:07:05.711Z,9.34
2024-02-19T03:08:05.578Z,9.39
2024-02-19T03:09:05.548Z,9.39
2024-02-19T03:10:05.589Z,9.39
2024-02-19T03:11:05.515Z,9.36
2024-02-19T03:12:05.479Z,9.39
2024-02-19T03:13:05.462Z,9.37
2024-02-19T03:14:05.444Z,9.37
2024-02-19T03:15:05.484Z,9.39
2024-02-19T03:16:05.436Z,9.39
2024-02-19T03:17:05.419Z,9.42
2024-02-19T03:18:05.588Z,9.39
2024-02-19T03:19:05.527Z,9.40
2024-02-19T03:20:05.411Z,9.40
2024-02-19T03:21:05.433Z,9.39
2024-02-19T03:22:05.417Z,9.40
2024-02-19T03:23:05.358Z,9.36
2024-02-19T03:24:05.352Z,9.36
2024-02-19T03:25:05.355Z,9.33
2024-02-19T03:26:05.313Z,9.36
2024-02-19T03:27:05.390Z,9.33
2024-02-19T03:28:05.373Z,9.36
2024-02-19T03:29:05.269Z,9.37
2024-02-19T03:30:05.267Z,9.39
2024-02-19T03:31:05.357Z,9.37
2024-02-19T03:32:05.304Z,9.39
2024-02-19T03:33:05.339Z,9.36
2024-02-19T03:34:05.366Z,9.37
2024-02-19T03:35:05.248Z,9.34
2024-02-19T03:36:05.208Z,9.36
2024-02-19T03:37:05.251Z,9.36
2024-02-19T03:38:05.357Z,9.34
2024-02-19T03:39:05.665Z,9.34
2024-02-19T03:40:05.209Z,9.30
2024-02-19T03:41:05.154Z,9.29
2024-02-19T03:42:05.135Z,9.27
2024-02-19T03:43:05.182Z,9.26
2024-02-19T03:44:05.142Z,9.22
2024-02-19T03:45:05.154Z,9.22
2024-02-19T03:46:05.175Z,9.21
2024-02-19T03:47:05.140Z,9.22
2024-02-19T03:48:05.191Z,9.21
2024-02-19T03:49:05.228Z,9.22
2024-02-19T03:50:05.112Z,9.24
2024-02-19T03:51:05.030Z,9.21
2024-02-19T03:52:05.077Z,9.26
2024-02-19T03:53:05.002Z,9.22
2024-02-19T03:54:05.050Z,9.26
2024-02-19T03:55:05.016Z,9.22
2024-02-19T03:56:04.974Z,9.22
2024-02-19T03:57:04.980Z,9.22
2024-02-19T03:58:05.047Z,9.22
2024-02-19T03:59:04.971Z,9.22
2024-02-19T04:00:04.962Z,9.22
2024-02-19T04:01:07.353Z,9.26
2024-02-19T04:02:04.998Z,9.26
2024-02-19T04:03:04.935Z,9.24
2024-02-19T04:04:04.964Z,9.24
2024-02-19T04:05:04.903Z,9.26
2024-02-19T04:06:04.874Z,9.26
2024-02-19T04:07:04.923Z,9.27
2024-02-19T04:08:07.305Z,9.24
2024-02-19T04:09:04.828Z,9.26
2024-02-19T04:10:04.940Z,9.27
2024-02-19T04:11:04.865Z,9.27
2024-02-19T04:12:04.845Z,9.29
2024-02-19T04:13:04.835Z,9.29
2024-02-19T04:14:04.835Z,9.30
2024-02-19T04:15:04.825Z,9.31
2024-02-19T04:16:04.839Z,9.33
2024-02-19T04:17:06.866Z,9.33
2024-02-19T04:18:04.855Z,9.31
2024-02-19T04:19:04.939Z,9.30
2024-02-19T04:20:04.823Z,9.29
2024-02-19T04:21:04.774Z,9.30
2024-02-19T04:22:04.811Z,9.30
2024-02-19T04:23:04.702Z,9.30
2024-02-19T04:24:04.734Z,9.29
2024-02-19T04:25:04.821Z,9.31
2024-02-19T04:26:04.672Z,9.30
2024-02-19T04:27:04.721Z,9.33
2024-02-19T04:28:04.742Z,9.30
2024-02-19T04:29:04.639Z,9.29
2024-02-19T04:30:04.614Z,9.31
2024-02-19T04:31:04.770Z,9.31
2024-02-19T04:32:04.612Z,9.30
2024-02-19T04:33:04.675Z,9.29
2024-02-19T04:34:04.739Z,9.30
2024-02-19T04:35:04.775Z,9.27
2024-02-19T04:36:04.596Z,9.27
2024-02-19T04:37:04.573Z,9.29
2024-02-19T04:38:04.547Z,9.30
2024-02-19T04:39:04.516Z,9.30
2024-02-19T04:40:04.668Z,9.33
2024-02-19T04:41:04.526Z,9.31
2024-02-19T04:42:04.501Z,9.33
2024-02-19T04:43:04.684Z,9.33
2024-02-19T04:44:04.460Z,9.34
2024-02-19T04:45:04.441Z,9.31
2024-02-19T04:46:04.652Z,9.33
2024-02-19T04:47:04.462Z,9.33
2024-02-19T04:48:04.460Z,9.31
2024-02-19T04:49:04.494Z,9.33
2024-02-19T04:50:04.611Z,9.31
2024-02-19T04:51:04.404Z,9.31
2024-02-19T04:52:04.480Z,9.31
2024-02-19T04:53:04.364Z,9.31
2024-02-19T04:54:04.377Z,9.30
2024-02-19T04:55:04.521Z,9.29
2024-02-19T04:56:04.335Z,9.31
2024-02-19T04:57:04.355Z,9.30
2024-02-19T04:58:04.333Z,9.30
2024-02-19T04:59:04.373Z,9.29
2024-02-19T05:00:04.385Z,9.30
2024-02-19T05:01:04.446Z,9.30
2024-02-19T05:02:04.355Z,9.31
2024-02-19T05:03:04.278Z,9.27
2024-02-19T05:04:04.311Z,9.31
2024-02-19T05:05:04.321Z,9.30
2024-02-19T05:06:04.289Z,9.36
2024-02-19T05:07:04.218Z,9.31
2024-02-19T05:08:04.225Z,9.31
2024-02-19T05:09:04.261Z,9.33
2024-02-19T05:10:04.303Z,9.31
2024-02-19T05:11:04.250Z,9.31
2024-02-19T05:12:04.174Z,9.31
2024-02-19T05:13:04.240Z,9.33
2024-02-19T05:14:04.162Z,9.33
2024-02-19T05:15:04.152Z,9.31
2024-02-19T05:16:04.202Z,9.31
2024-02-19T05:17:04.152Z,9.31
2024-02-19T05:18:04.529Z,9.33
2024-02-19T05:19:04.330Z,9.34
2024-02-19T05:20:04.238Z,9.31
2024-02-19T05:21:04.443Z,9.31
2024-02-19T05:22:04.096Z,9.31
2024-02-19T05:23:04.103Z,9.30
2024-02-19T05:24:04.028Z,9.31
2024-02-19T05:25:04.161Z,9.31
2024-02-19T05:26:05.525Z,9.33
2024-02-19T05:27:04.014Z,9.30
2024-02-19T05:28:04.113Z,9.31
2024-02-19T05:29:03.992Z,9.30
2024-02-19T05:30:03.991Z,9.31
2024-02-19T05:31:05.026Z,9.33
2024-02-19T05:32:04.082Z,9.31
2024-02-19T05:33:03.996Z,9.30
2024-02-19T05:34:04.063Z,9.33
2024-02-19T05:35:04.064Z,9.31
2024-02-19T05:36:04.014Z,9.30
2024-02-19T05:37:04.006Z,9.30
2024-02-19T05:38:03.910Z,9.29
2024-02-19T05:39:03.870Z,9.27
2024-02-19T05:40:03.952Z,9.29
2024-02-19T05:41:03.870Z,9.29
2024-02-19T05:42:03.866Z,9.31
2024-02-19T05:43:03.861Z,9.31
2024-02-19T05:44:03.818Z,9.31
2024-02-19T05:45:03.853Z,9.30
2024-02-19T05:46:04.021Z,9.30
2024-02-19T05:47:03.803Z,9.31
2024-02-19T05:48:03.951Z,9.29
2024-02-19T05:49:03.927Z,9.30
2024-02-19T05:50:03.983Z,9.29
2024-02-19T05:51:03.774Z,9.30
2024-02-19T05:52:03.795Z,9.30
2024-02-19T05:53:03.723Z,9.29
2024-02-19T05:54:03.719Z,9.27
2024-02-19T05:55:03.799Z,9.27
2024-02-19T05:56:03.726Z,9.31
2024-02-19T05:57:03.809Z,9.30
2024-02-19T05:58:03.734Z,9.30
2024-02-19T05:59:03.736Z,9.31
2024-02-19T06:00:03.653Z,9.29
2024-02-19T06:01:03.918Z,9.31
2024-02-19T06:02:03.825Z,9.30
2024-02-19T06:03:03.733Z,9.30
2024-02-19T06:04:03.611Z,9.30
2024-02-19T06:05:05.747Z,9.31
2024-02-19T06:06:03.737Z,9.33
2024-02-19T06:07:03.711Z,9.34
2024-02-19T06:08:03.697Z,9.33
2024-02-19T06:09:03.627Z,9.33
2024-02-19T06:10:03.710Z,9.31
2024-02-19T06:11:03.655Z,9.33
2024-02-19T06:12:03.561Z,9.33
2024-02-19T06:13:03.561Z,9.33
2024-02-19T06:14:03.574Z,9.34
2024-02-19T06:15:03.512Z,9.33
2024-02-19T06:16:03.588Z,9.31
2024-02-19T06:17:04.061Z,9.34
2024-02-19T06:18:03.619Z,9.34
2024-02-19T06:19:03.656Z,9.31
2024-02-19T06:20:03.652Z,9.33
2024-02-19T06:21:03.435Z,9.31
2024-02-19T06:22:03.486Z,9.33
2024-02-19T06:23:03.431Z,9.33
2024-02-19T06:24:03.389Z,9.34
2024-02-19T06:25:03.475Z,9.33
2024-02-19T06:26:03.392Z,9.31
2024-02-19T06:27:03.405Z,9.34
2024-02-19T06:28:03.520Z,9.31
2024-02-19T06:29:03.370Z,9.31
2024-02-19T06:30:03.371Z,9.31
2024-02-19T06:31:03.629Z,9.31
2024-02-19T06:32:03.332Z,9.33
2024-02-19T06:33:03.459Z,9.30
2024-02-19T06:34:03.440Z,9.30
2024-02-19T06:35:03.471Z,9.31
2024-02-19T06:36:03.267Z,9.31
2024-02-19T06:37:03.357Z,9.31
2024-02-19T06:38:03.238Z,9.34
2024-02-19T06:39:03.229Z,9.31
2024-02-19T06:40:03.439Z,9.31
2024-02-19T06:41:03.250Z,9.31
2024-02-19T06:42:03.238Z,9.34
2024-02-19T06:43:03.492Z,9.31
2024-02-19T06:44:03.179Z,9.36
2024-02-19T06:45:03.189Z,9.34
2024-02-19T06:46:03.238Z,9.34
2024-02-19T06:47:03.204Z,9.33
2024-02-19T06:48:03.332Z,9.34
2024-02-19T06:49:03.246Z,9.36
2024-02-19T06:50:03.368Z,9.34
2024-02-19T06:51:03.176Z,9.33
2024-02-19T06:52:03.308Z,9.36
2024-02-19T06:53:03.158Z,9.39
2024-02-19T06:54:03.110Z,9.36
2024-02-19T06:55:03.149Z,9.37
2024-02-19T06:56:03.136Z,9.39
2024-02-19T06:57:03.115Z,9.39
2024-02-19T06:58:03.087Z,9.39
2024-02-19T06:59:03.104Z,9.44
2024-02-19T07:00:03.095Z,9.44
2024-02-19T07:01:03.143Z,9.45
2024-02-19T07:02:06.967Z,9.48
2024-02-19T07:03:04.057Z,9.47
2024-02-19T07:04:03.079Z,9.48
2024-02-19T07:05:03.193Z,9.45
2024-02-19T07:06:03.009Z,9.51
2024-02-19T07:07:03.024Z,9.49
2024-02-19T07:08:02.955Z,9.49
2024-02-19T07:09:03.031Z,9.49
2024-02-19T07:10:03.021Z,9.52
2024-02-19T07:11:03.101Z,9.52
2024-02-19T07:12:02.897Z,9.54
2024-02-19T07:13:02.957Z,9.56
2024-02-19T07:14:02.961Z,9.59
2024-02-19T07:15:02.921Z,9.58
2024-02-19T07:16:02.883Z,9.63
2024-02-19T07:17:02.924Z,9.63
2024-02-19T07:18:03.093Z,9.62
2024-02-19T07:19:02.988Z,9.63
2024-02-19T07:20:03.108Z,9.69
2024-02-19T07:21:02.862Z,9.69
2024-02-19T07:22:02.858Z,9.70
2024-02-19T07:23:02.844Z,9.70
2024-02-19T07:24:02.836Z,9.74
2024-02-19T07:25:10.416Z,9.81
2024-02-19T07:26:03.796Z,9.84
2024-02-19T07:27:02.789Z,9.87
2024-02-19T07:28:02.827Z,9.87
2024-02-19T07:29:02.780Z,9.88
2024-02-19T07:30:02.904Z,9.90
2024-02-19T07:31:02.770Z,9.91
2024-02-19T07:32:02.753Z,9.90
2024-02-19T07:33:02.759Z,9.90
2024-02-19T07:34:02.802Z,9.90
2024-02-19T07:35:02.775Z,9.92
2024-02-19T07:36:02.694Z,9.92
2024-02-19T07:37:02.800Z,9.97
2024-02-19T07:38:02.654Z,10.00
2024-02-19T07:39:02.659Z,10.02
2024-02-19T07:40:02.681Z,9.99
2024-02-19T07:41:02.642Z,9.97
2024-02-19T07:42:02.646Z,10.02
2024-02-19T07:43:02.623Z,10.03
2024-02-19T07:44:02.603Z,10.05
2024-02-19T07:45:02.566Z,10.06
2024-02-19T07:46:02.689Z,10.07
2024-02-19T07:47:03.571Z,10.09
2024-02-19T07:48:02.601Z,10.10
2024-02-19T07:49:02.693Z,10.12
2024-02-19T07:50:02.714Z,10.17
2024-02-19T07:51:02.603Z,10.18
2024-02-19T07:52:02.514Z,10.21
2024-02-19T07:53:02.484Z,10.23
2024-02-19T07:54:02.477Z,10.27
2024-02-19T07:55:02.574Z,10.33
2024-02-19T07:56:02.517Z,10.36
2024-02-19T07:57:02.461Z,10.38
2024-02-19T07:58:02.490Z,10.43
2024-02-19T07:59:02.468Z,10.46
2024-02-19T08:00:02.517Z,10.48
2024-02-19T08:01:04.384Z,10.51
2024-02-19T08:02:02.564Z,10.51
2024-02-19T08:03:02.421Z,10.57
2024-02-19T08:04:02.392Z,10.62
2024-02-19T08:05:02.587Z,10.67
2024-02-19T08:06:02.372Z,10.75
2024-02-19T08:07:02.565Z,10.79
2024-02-19T08:08:02.298Z,10.86
2024-02-19T08:09:02.301Z,10.90
2024-02-19T08:10:02.366Z,10.95
2024-02-19T08:11:02.378Z,11.00
2024-02-19T08:12:02.468Z,11.07
2024-02-19T08:13:02.625Z,11.15
2024-02-19T08:14:02.416Z,11.22
2024-02-19T08:15:02.329Z,11.25
2024-02-19T08:16:02.294Z,11.27
2024-02-19T08:17:02.237Z,11.27
2024-02-19T08:18:02.349Z,11.30
2024-02-19T08:19:02.345Z,11.31
2024-02-19T08:20:02.962Z,11.35
2024-02-19T08:21:02.145Z,11.35
2024-02-19T08:22:02.194Z,11.35
2024-02-19T08:23:02.197Z,11.33
2024-02-19T08:24:02.174Z,11.34
2024-02-19T08:25:02.250Z,11.31
2024-02-19T08:26:02.110Z,11.31
2024-02-19T08:27:02.149Z,11.33
2024-02-19T08:28:02.114Z,11.31
2024-02-19T08:29:02.133Z,11.30
2024-02-19T08:30:02.096Z,11.33
2024-02-19T08:31:02.155Z,11.31
2024-02-19T08:32:02.032Z,11.34
2024-02-19T08:33:02.143Z,11.38
2024-02-19T08:34:02.299Z,11.40
2024-02-19T08:35:02.083Z,11.43
2024-02-19T08:36:01.989Z,11.45
2024-02-19T08:37:02.126Z,11.45
2024-02-19T08:38:01.976Z,11.48
2024-02-19T08:39:01.999Z,11.49
2024-02-19T08:40:02.200Z,11.52
2024-02-19T08:41:01.952Z,11.52
2024-02-19T08:42:01.904Z,11.55
2024-02-19T08:43:01.942Z,11.56
2024-02-19T08:44:02.060Z,11.56
2024-02-19T08:45:02.445Z,11.55
2024-02-19T08:46:01.975Z,11.58
2024-02-19T08:47:01.864Z,11.56
2024-02-19T08:48:01.887Z,11.55
2024-02-19T08:49:02.053Z,11.56
2024-02-19T08:50:01.960Z,11.56
2024-02-19T08:51:01.805Z,11.59
2024-02-19T08:52:01.916Z,11.60
2024-02-19T08:53:01.846Z,11.60
2024-02-19T08:54:01.768Z,11.63
2024-02-19T08:55:02.630Z,11.68
2024-02-19T08:56:01.753Z,11.70
2024-02-19T08:57:01.792Z,11.70
2024-02-19T08:58:01.775Z,11.70
2024-02-19T08:59:01.715Z,11.67
2024-02-19T09:00:01.708Z,11.68
2024-02-19T09:01:01.797Z,11.71
2024-02-19T09:02:01.841Z,11.73
2024-02-19T09:03:01.750Z,11.71
2024-02-19T09:04:01.794Z,11.73
2024-02-19T09:05:01.724Z,11.76
2024-02-19T09:06:01.786Z,11.78
2024-02-19T09:07:01.743Z,11.85
2024-02-19T09:08:01.640Z,11.88
2024-02-19T09:09:01.735Z,11.91
2024-02-19T09:10:01.676Z,11.96
2024-02-19T09:11:01.710Z,11.96
2024-02-19T09:12:01.654Z,11.95
2024-02-19T09:13:01.778Z,11.93
2024-02-19T09:14:01.640Z,11.95
2024-02-19T09:15:01.609Z,11.93
2024-02-19T09:16:01.623Z,11.95
2024-02-19T09:17:01.512Z,11.91
2024-02-19T09:18:01.527Z,11.91
2024-02-19T09:19:01.712Z,11.91
2024-02-19T09:20:01.568Z,11.89
2024-02-19T09:21:01.478Z,11.88
2024-02-19T09:22:01.507Z,11.86
2024-02-19T09:23:01.449Z,11.85
2024-02-19T09:24:01.434Z,11.85
2024-02-19T09:25:01.567Z,11.83
2024-02-19T09:26:01.436Z,11.83
2024-02-19T09:27:01.409Z,11.81
2024-02-19T09:28:01.470Z,11.83
2024-02-19T09:29:01.425Z,11.83
2024-02-19T09:30:01.403Z,11.83
2024-02-19T09:31:01.444Z,11.83
2024-02-19T09:32:01.496Z,11.83
2024-02-19T09:33:01.517Z,11.85
2024-02-19T09:34:01.423Z,11.86
2024-02-19T09:35:01.505Z,11.88
2024-02-19T09:36:01.474Z,11.96
2024-02-19T09:37:01.379Z,12.00
2024-02-19T09:38:01.317Z,12.07
2024-02-19T09:39:01.324Z,12.18
2024-02-19T09:40:01.441Z,12.23
2024-02-19T09:41:01.289Z,12.23
2024-02-19T09:42:01.257Z,12.32
2024-02-19T09:43:01.337Z,12.35
2024-02-19T09:44:01.288Z,12.40
2024-02-19T09:45:01.239Z,12.45
2024-02-19T09:46:01.300Z,12.48
2024-02-19T09:47:01.198Z,12.55
2024-02-19T09:48:01.435Z,12.61
2024-02-19T09:49:01.283Z,12.66
2024-02-19T09:50:01.501Z,12.72
2024-02-19T09:51:01.197Z,12.75
2024-02-19T09:52:01.261Z,12.81
2024-02-19T09:53:01.147Z,12.86
2024-02-19T09:54:01.152Z,12.90
2024-02-19T09:55:01.178Z,12.90
2024-02-19T09:56:01.288Z,12.93
2024-02-19T09:57:01.084Z,12.95
2024-02-19T09:58:01.154Z,13.03
2024-02-19T09:59:01.116Z,13.06
2024-02-19T10:00:01.042Z,13.11
2024-02-19T10:01:01.201Z,13.09
2024-02-19T10:02:01.365Z,13.11
2024-02-19T10:03:01.031Z,13.11
2024-02-19T10:04:01.374Z,13.12
2024-02-19T10:05:01.284Z,13.12
2024-02-19T10:06:01.115Z,13.13
2024-02-19T10:07:01.126Z,13.16
2024-02-19T10:08:01.205Z,13.19
2024-02-19T10:09:00.961Z,13.23
2024-02-19T10:10:01.020Z,13.23
2024-02-19T10:11:00.925Z,13.16
2024-02-19T10:12:01.070Z,13.16
2024-02-19T10:13:01.024Z,13.12
2024-02-19T10:14:00.946Z,13.12
2024-02-19T10:15:00.903Z,13.06
2024-02-19T10:16:01.645Z,13.02
2024-02-19T10:17:00.861Z,12.99
2024-02-19T10:18:00.910Z,12.98
2024-02-19T10:19:01.041Z,12.95
2024-02-19T10:20:00.933Z,12.94
2024-02-19T10:21:00.807Z,12.98
2024-02-19T10:22:00.878Z,12.93
2024-02-19T10:23:00.882Z,12.90
2024-02-19T10:24:00.936Z,12.90
2024-02-19T10:25:00.857Z,12.91
2024-02-19T10:26:00.855Z,12.88
2024-02-19T10:27:00.837Z,12.90
2024-02-19T10:28:00.799Z,12.90
2024-02-19T10:29:00.734Z,12.93
2024-02-19T10:30:00.732Z,12.99
2024-02-19T10:31:00.760Z,12.99
2024-02-19T10:32:00.713Z,13.03
2024-02-19T10:33:00.736Z,13.11
2024-02-19T10:34:00.943Z,13.21
2024-02-19T10:35:00.850Z,13.26
2024-02-19T10:36:00.709Z,13.30
2024-02-19T10:37:00.733Z,13.36
2024-02-19T10:38:00.808Z,13.46
2024-02-19T10:39:00.730Z,13.50
2024-02-19T10:40:00.648Z,13.57
2024-02-19T10:41:00.650Z,13.61
2024-02-19T10:42:00.581Z,13.62
2024-02-19T10:43:00.637Z,13.62
2024-02-19T10:44:00.561Z,13.68
2024-02-19T10:45:00.613Z,13.71
2024-02-19T10:46:00.712Z,13.68
2024-02-19T10:47:00.581Z,13.65
2024-02-19T10:48:01.019Z,13.62
2024-02-19T10:49:00.634Z,13.58
2024-02-19T10:50:01.221Z,13.62
2024-02-19T10:51:00.537Z,13.61
2024-02-19T10:52:00.614Z,13.62
2024-02-19T10:53:00.498Z,13.62
2024-02-19T10:54:00.626Z,13.62
2024-02-19T10:55:09.614Z,13.60
2024-02-19T10:56:04.467Z,13.64
2024-02-19T10:57:00.507Z,13.70
2024-02-19T10:58:00.476Z,13.68
2024-02-19T10:59:00.449Z,13.70
2024-02-19T11:00:00.470Z,13.80
2024-02-19T11:01:00.483Z,13.82
2024-02-19T11:02:00.533Z,13.82
2024-02-19T11:03:00.427Z,13.82
2024-02-19T11:04:00.529Z,13.85
2024-02-19T11:05:00.398Z,13.86
2024-02-19T11:06:00.555Z,13.86
2024-02-19T11:07:00.543Z,13.87
2024-02-19T11:08:00.361Z,13.93
2024-02-19T11:09:00.412Z,13.97
2024-02-19T11:10:00.551Z,14.05
2024-02-19T11:11:00.428Z,14.04
2024-02-19T11:12:00.906Z,14.01
2024-02-19T11:13:01.706Z,14.04
2024-02-19T11:14:00.603Z,14.11
2024-02-19T11:15:00.269Z,14.11
2024-02-19T11:16:00.392Z,14.15
2024-02-19T11:17:00.237Z,14.19
2024-02-19T11:18:00.298Z,14.20
2024-02-19T11:19:00.310Z,14.23
2024-02-19T11:20:00.344Z,14.23
2024-02-19T11:21:00.249Z,14.20
2024-02-19T11:22:00.311Z,14.18
2024-02-19T11:23:00.253Z,14.16
2024-02-19T11:24:00.172Z,14.18
2024-02-19T11:25:00.206Z,14.23
2024-02-19T11:26:00.221Z,14.33
2024-02-19T11:27:00.139Z,14.37
2024-02-19T11:28:00.194Z,14.40
2024-02-19T11:29:00.115Z,14.41
2024-02-19T11:30:00.161Z,14.40
2024-02-19T11:31:00.148Z,14.36
2024-02-19T11:32:00.166Z,14.33
2024-02-19T11:33:00.150Z,14.26
2024-02-19T11:34:00.084Z,14.23
2024-02-19T11:35:00.104Z,14.18
2024-02-19T11:36:00.097Z,14.15
2024-02-19T11:37:00.136Z,14.07
2024-02-19T11:38:00.147Z,14.08
2024-02-19T11:39:00.359Z,14.05
2024-02-19T11:40:00.102Z,14.11
2024-02-19T11:40:59.972Z,14.11
2024-02-19T11:41:59.938Z,14.12
2024-02-19T11:43:00.046Z,14.13
2024-02-19T11:43:59.934Z,14.13
2024-02-19T11:44:59.908Z,14.08
2024-02-19T11:46:00.276Z,14.00
2024-02-19T11:46:59.901Z,13.94
2024-02-19T11:48:00.054Z,13.91
2024-02-19T11:49:00.035Z,13.87
2024-02-19T11:49:59.911Z,13.85
2024-02-19T11:50:59.873Z,13.80
2024-02-19T11:52:07.783Z,13.80
2024-02-19T11:53:01.080Z,13.79
2024-02-19T11:53:59.828Z,13.78
2024-02-19T11:54:59.848Z,13.76
2024-02-19T11:55:59.920Z,13.78
2024-02-19T11:56:59.806Z,13.82
2024-02-19T11:57:59.884Z,13.87
2024-02-19T11:58:59.767Z,13.91
2024-02-19T11:59:59.746Z,13.95
2024-02-19T12:00:59.862Z,14.00
2024-02-19T12:01:59.932Z,14.11
2024-02-19T12:02:59.760Z,14.18
2024-02-19T12:03:59.706Z,14.30
2024-02-19T12:04:59.816Z,14.36
2024-02-19T12:05:59.744Z,14.44
2024-02-19T12:06:59.801Z,14.51
2024-02-19T12:07:59.751Z,14.53
2024-02-19T12:08:59.759Z,14.56
2024-02-19T12:09:59.677Z,14.58
2024-02-19T12:10:59.852Z,14.59
2024-02-19T12:11:59.893Z,14.61
2024-02-19T12:12:59.657Z,14.62
2024-02-19T12:13:59.612Z,14.66
2024-02-19T12:14:59.591Z,14.67
2024-02-19T12:15:59.599Z,14.71
2024-02-19T12:16:59.566Z,14.73
2024-02-19T12:17:59.585Z,14.77
2024-02-19T12:19:01.188Z,14.79
2024-02-19T12:19:59.638Z,14.82
2024-02-19T12:20:59.528Z,14.86
2024-02-19T12:21:59.582Z,14.86
2024-02-19T12:22:59.570Z,14.89
2024-02-19T12:23:59.604Z,14.94
2024-02-19T12:24:59.889Z,15.04
2024-02-19T12:25:59.459Z,15.12
2024-02-19T12:26:59.457Z,15.19
2024-02-19T12:27:59.529Z,15.22
2024-02-19T12:28:59.461Z,15.22
2024-02-19T12:29:59.405Z,15.18
2024-02-19T12:30:59.581Z,15.17
2024-02-19T12:31:59.416Z,15.25
2024-02-19T12:32:59.485Z,15.33
2024-02-19T12:33:59.589Z,15.43
2024-02-19T12:34:59.552Z,15.39
2024-02-19T12:35:59.603Z,15.30
2024-02-19T12:36:59.481Z,15.25
2024-02-19T12:37:59.384Z,15.18
2024-02-19T12:38:59.359Z,15.15
2024-02-19T12:39:59.381Z,15.11
2024-02-19T12:40:59.279Z,15.05
2024-02-19T12:41:59.303Z,14.99
2024-02-19T12:42:59.385Z,14.93
2024-02-19T12:43:59.278Z,14.89
2024-02-19T12:44:59.283Z,14.87
2024-02-19T12:45:59.289Z,14.79
2024-02-19T12:46:59.286Z,14.78
2024-02-19T12:47:59.314Z,14.74
2024-02-19T12:48:59.824Z,14.67
2024-02-19T12:49:59.301Z,14.63
2024-02-19T12:50:59.225Z,14.59
2024-02-19T12:51:59.231Z,14.55
2024-02-19T12:52:59.183Z,14.52
2024-02-19T12:53:59.317Z,14.49
2024-02-19T12:54:59.259Z,14.44
2024-02-19T12:55:59.173Z,14.44
2024-02-19T12:56:59.143Z,14.44
2024-02-19T12:57:59.201Z,14.44
2024-02-19T12:58:59.170Z,14.45
2024-02-19T12:59:59.167Z,14.49
2024-02-19T13:00:59.990Z,14.51
2024-02-19T13:01:59.263Z,14.55
2024-02-19T13:02:59.154Z,14.49
2024-02-19T13:03:59.075Z,14.49
2024-02-19T13:04:59.171Z,14.49
2024-02-19T13:05:59.259Z,14.44